Etusivu
METAR-TAF:

METAR-TAF

Lentoasemat :

Bromman lentoasema

Tukholma, Ruotsi

Leveyspiiri: 59-21N, Pituuspiiri: 017-57E, korkeus merenpinnasta: 14 m

Tämänhetkinen sää

Tämä raportti tehtiin 29 minuuttia sitten, kello 15.50 UTC
Tuuli 12 kn lännestä
Lämpötila 10°C
Kosteus 82%
Ilmanpaine 1015 hPa
Näkyvyys 10 km tai enemmän
Hajanaisia pilviä 1700 ft:n korkeudessa

METAR: ESSB 211550Z 27012KT 9999 SCT017 10/07 Q1015 R12/15//83

Aika: 17:19 (16:19 UTC)

Sääennuste

Tämä raportti tehtiin 1 tunti ja 49 minuuttia sitten, kello 14.30 UTC
Ennuste voimassa 21. päivästä klo 15 UTC - 21. päivään klo 21 UTC
Tuuli 10 kn lännestä
Näkyvyys 10 km tai enemmän
Hajanaisia pilviä 1600 ft:n korkeudessa
Tulossa
21. päivästä klo 18 UTC - 21. päivään klo 20 UTC
Tuuli 10 kn pohjoisen/luoteesta

TAF: ESSB 211430Z 2115/2121 26010KT 9999 SCT016 BECMG 2118/2120 33010KT

Säähavainnot ja -ennusteet yli 4000 lentoasemalta (METAR- ja TAF-raportit).

Käytössä olevat sääasemat on merkitty karttaan keltaisilla ja punaisilla pisteillä.

Aseta hiiri pisteen päälle nähdäksesi sääaseman nimen.

Klikkaa sitten nähdäksesi säähavainnot ja -ennusteet.

Kartan vaihtaminen: klikkaa mustalla rastilla varustettuja vihreitä pisteitä, niin voit zoomata sisään; viivalla varustettua vihreää pistettä, niin voit zoomata ulos tai vihreitä nuolia, niin pääset viereisille kartoille.


METAR-TAF: